Pagrindinis puslapis
METAR-TAF:

METAR-TAF

Oro uostai :

Mammoth Yosemite Airport

Mammoth Lakes, Kalifornija, Jungtinės Amerikos Valstijos

platuma: 37-37N, ilguma: 118-50W, Aukštis: 2173 m

Dabartinis oras

Ataskaita buvo paskelbta 1 valandą ir 14 minutes, ne 21:57 UTC
Vėjas 6 kt iš Šiaurės
Temperatūra 3°C
Drėgmė 30%
Slėgis 1022 hPa
Matomumas: 16.1 km
Giedras dangus

METAR: KMMH 252157Z AUTO 36006KT 10SM CLR 03/M13 A3017 RMK AO2 PWINO

Laikas: 15:11 (23:11 UTC)

Prognozė

Ataskaita buvo paskelbta 5 valandos ir 51 minutes, ne 17:20 UTC
Prognozė galioja nuo 25 metu 18 UTC su 26 metu 18 UTC
Vėjas 8 kt iš Šiaurės Vakarų
Matomumas: 10 km
Giedras dangus

TAF: KMMH 251720Z 2518/2618 32008KT P6SM SKC

Orai ataskaitas ir orų prognozės (METAR, TAF).

turimą stotys yra geltonos ir raudonos taškus žemėlapyje.

Perkelti pele per norėdami pamatyti stoties vardą.

Tada spustelėkite, norėdami matyti oro stebėjimo ir prognozės.

Norėdami pakeisti žemėlapį: spustelėkite ant žalios mygtukų su juodo kryžiaus žemyn,; žalią mygtuką su brūkšneliu, jei norite nutolinti; arba žalių rodyklių gretimoms žemėlapius.


METAR-TAF: